sensor_id;sensor_type;location;lat;lon;timestamp;noise_LAeq;noise_LA_min;noise_LA_max;noise_LA01;noise_LA95
57092;Laerm;42968;52.094;4.328;2023-04-24T00:01:13;65.20;50.61;83.05;;
57092;Laerm;42968;52.094;4.328;2023-04-24T00:03:38;56.22;48.05;77.20;;
57092;Laerm;42968;52.094;4.328;2023-04-24T00:06:04;67.03;47.46;84.35;;
57092;Laerm;42968;52.094;4.328;2023-04-24T00:08:30;61.86;46.20;78.62;;
57092;Laerm;42968;52.094;4.328;2023-04-24T00:10:55;63.60;44.87;78.52;;
57092;Laerm;42968;52.094;4.328;2023-04-24T00:13:21;50.17;44.35;75.18;;
57092;Laerm;42968;52.094;4.328;2023-04-24T00:15:46;48.66;43.54;68.45;;
57092;Laerm;42968;52.094;4.328;2023-04-24T00:18:12;62.57;42.76;76.54;;
57092;Laerm;42968;52.094;4.328;2023-04-24T00:20:37;51.15;41.96;72.82;;
57092;Laerm;42968;52.094;4.328;2023-04-24T00:23:03;48.57;42.09;66.63;;
57092;Laerm;42968;52.094;4.328;2023-04-24T00:25:28;64.71;41.75;80.87;;
57092;Laerm;42968;52.094;4.328;2023-04-24T00:27:53;63.97;41.96;81.83;;
57092;Laerm;42968;52.094;4.328;2023-04-24T00:30:18;47.61;41.30;75.35;;
57092;Laerm;42968;52.094;4.328;2023-04-24T00:32:44;59.64;39.70;74.89;;
57092;Laerm;42968;52.094;4.328;2023-04-24T00:35:09;46.67;39.81;74.78;;
57092;Laerm;42968;52.094;4.328;2023-04-24T00:37:35;64.60;41.75;81.11;;
57092;Laerm;42968;52.094;4.328;2023-04-24T00:40:01;60.13;41.68;76.98;;
57092;Laerm;42968;52.094;4.328;2023-04-24T00:42:26;59.83;41.30;80.32;;
57092;Laerm;42968;52.094;4.328;2023-04-24T00:44:51;48.51;40.98;75.14;;
57092;Laerm;42968;52.094;4.328;2023-04-24T00:47:17;47.07;41.53;69.25;;
57092;Laerm;42968;52.094;4.328;2023-04-24T00:49:43;46.07;41.75;66.53;;
57092;Laerm;42968;52.094;4.328;2023-04-24T00:52:09;61.27;41.22;82.46;;
57092;Laerm;42968;52.094;4.328;2023-04-24T00:54:34;59.62;41.68;75.41;;
57092;Laerm;42968;52.094;4.328;2023-04-24T00:57:00;62.62;41.30;76.98;;
57092;Laerm;42968;52.094;4.328;2023-04-24T00:59:26;50.30;40.98;81.67;;
57092;Laerm;42968;52.094;4.328;2023-04-24T01:01:51;60.35;40.71;80.29;;
57092;Laerm;42968;52.094;4.328;2023-04-24T01:04:17;48.11;41.30;73.67;;
57092;Laerm;42968;52.094;4.328;2023-04-24T01:06:43;65.62;42.16;84.76;;
57092;Laerm;42968;52.094;4.328;2023-04-24T01:09:09;61.41;43.24;79.71;;
57092;Laerm;42968;52.094;4.328;2023-04-24T01:11:36;59.05;43.00;78.36;;
57092;Laerm;42968;52.094;4.328;2023-04-24T01:14:01;60.63;43.24;75.04;;
57092;Laerm;42968;52.094;4.328;2023-04-24T01:16:26;64.43;43.24;80.76;;
57092;Laerm;42968;52.094;4.328;2023-04-24T01:18:52;49.08;42.16;71.26;;
57092;Laerm;42968;52.094;4.328;2023-04-24T01:21:17;63.28;42.29;81.02;;
57092;Laerm;42968;52.094;4.328;2023-04-24T01:23:43;66.46;42.88;81.53;;
57092;Laerm;42968;52.094;4.328;2023-04-24T01:26:08;64.58;41.89;81.05;;
57092;Laerm;42968;52.094;4.328;2023-04-24T01:28:34;62.62;42.03;83.46;;
57092;Laerm;42968;52.094;4.328;2023-04-24T01:30:59;51.13;44.62;70.72;;
57092;Laerm;42968;52.094;4.328;2023-04-24T01:33:24;64.51;44.73;81.41;;
57092;Laerm;42968;52.094;4.328;2023-04-24T01:35:50;57.69;45.42;82.43;;
57092;Laerm;42968;52.094;4.328;2023-04-24T01:38:16;61.78;46.18;76.62;;
57092;Laerm;42968;52.094;4.328;2023-04-24T01:40:41;61.26;45.11;80.77;;
57092;Laerm;42968;52.094;4.328;2023-04-24T01:43:06;64.89;43.68;78.23;;
57092;Laerm;42968;52.094;4.328;2023-04-24T01:45:32;61.50;42.35;80.22;;
57092;Laerm;42968;52.094;4.328;2023-04-24T01:47:57;59.38;43.19;78.28;;
57092;Laerm;42968;52.094;4.328;2023-04-24T01:50:22;64.20;42.82;82.11;;
57092;Laerm;42968;52.094;4.328;2023-04-24T01:52:48;48.95;42.41;69.39;;
57092;Laerm;42968;52.094;4.328;2023-04-24T01:55:13;63.35;42.35;78.89;;
57092;Laerm;42968;52.094;4.328;2023-04-24T01:57:38;50.05;42.82;75.52;;
57092;Laerm;42968;52.094;4.328;2023-04-24T02:00:05;50.70;45.11;74.07;;
57092;Laerm;42968;52.094;4.328;2023-04-24T02:02:31;51.77;45.42;75.39;;
57092;Laerm;42968;52.094;4.328;2023-04-24T02:04:57;52.00;45.14;81.16;;
57092;Laerm;42968;52.094;4.328;2023-04-24T02:07:22;62.68;45.91;77.56;;
57092;Laerm;42968;52.094;4.328;2023-04-24T02:09:48;63.60;47.08;84.00;;
57092;Laerm;42968;52.094;4.328;2023-04-24T02:12:13;64.75;47.10;81.53;;
57092;Laerm;42968;52.094;4.328;2023-04-24T02:14:39;60.50;48.08;84.97;;
57092;Laerm;42968;52.094;4.328;2023-04-24T02:17:04;61.55;46.55;82.97;;
57092;Laerm;42968;52.094;4.328;2023-04-24T02:19:30;54.56;47.12;81.74;;
57092;Laerm;42968;52.094;4.328;2023-04-24T02:21:55;55.62;48.37;76.79;;
57092;Laerm;42968;52.094;4.328;2023-04-24T02:24:20;66.45;48.43;82.92;;
57092;Laerm;42968;52.094;4.328;2023-04-24T02:26:45;57.12;48.73;84.98;;
57092;Laerm;42968;52.094;4.328;2023-04-24T02:29:11;55.14;48.60;80.12;;
57092;Laerm;42968;52.094;4.328;2023-04-24T02:31:36;64.39;48.52;80.09;;
57092;Laerm;42968;52.094;4.328;2023-04-24T02:34:01;63.91;47.30;82.65;;
57092;Laerm;42968;52.094;4.328;2023-04-24T02:36:27;54.85;46.40;74.73;;
57092;Laerm;42968;52.094;4.328;2023-04-24T02:38:52;67.55;47.38;81.82;;
57092;Laerm;42968;52.094;4.328;2023-04-24T02:41:17;67.92;47.36;83.89;;
57092;Laerm;42968;52.094;4.328;2023-04-24T02:43:43;62.70;48.66;80.56;;
57092;Laerm;42968;52.094;4.328;2023-04-24T02:46:08;63.58;47.83;83.95;;
57092;Laerm;42968;52.094;4.328;2023-04-24T02:48:33;65.19;47.54;83.42;;
57092;Laerm;42968;52.094;4.328;2023-04-24T02:50:58;63.57;46.62;79.05;;
57092;Laerm;42968;52.094;4.328;2023-04-24T02:53:24;66.28;46.48;84.66;;
57092;Laerm;42968;52.094;4.328;2023-04-24T02:55:49;65.58;46.97;82.72;;
57092;Laerm;42968;52.094;4.328;2023-04-24T02:58:14;54.25;46.52;80.33;;
57092;Laerm;42968;52.094;4.328;2023-04-24T03:00:40;53.48;48.00;71.25;;
57092;Laerm;42968;52.094;4.328;2023-04-24T03:03:06;65.40;46.91;81.85;;
57092;Laerm;42968;52.094;4.328;2023-04-24T03:05:32;60.63;46.91;79.45;;
57092;Laerm;42968;52.094;4.328;2023-04-24T03:07:57;68.42;46.64;85.48;;
57092;Laerm;42968;52.094;4.328;2023-04-24T03:10:22;66.70;46.93;84.26;;
57092;Laerm;42968;52.094;4.328;2023-04-24T03:12:48;69.92;47.26;83.84;;
57092;Laerm;42968;52.094;4.328;2023-04-24T03:15:13;69.88;46.36;84.71;;
57092;Laerm;42968;52.094;4.328;2023-04-24T03:17:38;67.06;46.25;85.26;;
57092;Laerm;42968;52.094;4.328;2023-04-24T03:20:04;67.48;47.12;80.61;;
57092;Laerm;42968;52.094;4.328;2023-04-24T03:22:30;67.47;45.01;83.16;;
57092;Laerm;42968;52.094;4.328;2023-04-24T03:24:57;70.08;45.48;85.22;;
57092;Laerm;42968;52.094;4.328;2023-04-24T03:27:22;71.82;49.30;86.34;;
57092;Laerm;42968;52.094;4.328;2023-04-24T03:29:48;71.81;51.11;83.82;;
57092;Laerm;42968;52.094;4.328;2023-04-24T03:32:16;70.36;49.74;85.01;;
57092;Laerm;42968;52.094;4.328;2023-04-24T03:34:42;70.52;51.80;81.64;;
57092;Laerm;42968;52.094;4.328;2023-04-24T03:37:07;67.07;45.75;83.39;;
57092;Laerm;42968;52.094;4.328;2023-04-24T03:39:32;70.27;51.05;84.49;;
57092;Laerm;42968;52.094;4.328;2023-04-24T03:41:57;73.48;54.35;87.78;;
57092;Laerm;42968;52.094;4.328;2023-04-24T03:44:23;74.00;57.21;87.54;;
57092;Laerm;42968;52.094;4.328;2023-04-24T03:46:48;72.80;50.83;85.58;;
57092;Laerm;42968;52.094;4.328;2023-04-24T03:49:13;72.34;52.41;85.74;;
57092;Laerm;42968;52.094;4.328;2023-04-24T03:51:38;74.68;55.21;88.99;;
57092;Laerm;42968;52.094;4.328;2023-04-24T03:54:04;74.32;55.39;86.10;;
57092;Laerm;42968;52.094;4.328;2023-04-24T03:56:29;72.64;51.59;86.99;;
57092;Laerm;42968;52.094;4.328;2023-04-24T03:58:55;72.40;54.83;84.82;;
57092;Laerm;42968;52.094;4.328;2023-04-24T04:01:20;75.22;56.40;86.85;;
57092;Laerm;42968;52.094;4.328;2023-04-24T04:03:45;71.29;50.23;86.69;;
57092;Laerm;42968;52.094;4.328;2023-04-24T04:06:11;73.49;51.42;87.22;;
57092;Laerm;42968;52.094;4.328;2023-04-24T04:08:38;73.73;53.67;84.24;;
57092;Laerm;42968;52.094;4.328;2023-04-24T04:11:03;72.82;51.36;85.54;;
57092;Laerm;42968;52.094;4.328;2023-04-24T04:13:28;73.87;53.00;85.95;;
57092;Laerm;42968;52.094;4.328;2023-04-24T04:15:53;76.69;56.85;90.94;;
57092;Laerm;42968;52.094;4.328;2023-04-24T04:18:19;75.85;52.21;87.30;;
57092;Laerm;42968;52.094;4.328;2023-04-24T04:20:44;75.29;55.49;84.43;;
57092;Laerm;42968;52.094;4.328;2023-04-24T04:23:09;75.77;55.07;86.26;;
57092;Laerm;42968;52.094;4.328;2023-04-24T04:25:34;73.37;51.49;85.02;;
57092;Laerm;42968;52.094;4.328;2023-04-24T04:28:00;75.30;55.81;86.40;;
57092;Laerm;42968;52.094;4.328;2023-04-24T04:30:25;75.58;57.28;85.15;;
57092;Laerm;42968;52.094;4.328;2023-04-24T04:32:51;77.48;60.03;86.15;;
57092;Laerm;42968;52.094;4.328;2023-04-24T04:35:16;76.49;55.48;90.19;;
57092;Laerm;42968;52.094;4.328;2023-04-24T04:37:41;75.98;55.16;87.10;;
57092;Laerm;42968;52.094;4.328;2023-04-24T04:40:07;76.52;56.65;85.37;;
57092;Laerm;42968;52.094;4.328;2023-04-24T04:42:32;77.68;59.16;88.10;;
57092;Laerm;42968;52.094;4.328;2023-04-24T04:45:01;76.63;56.24;85.78;;
57092;Laerm;42968;52.094;4.328;2023-04-24T04:47:27;78.02;58.24;86.98;;
57092;Laerm;42968;52.094;4.328;2023-04-24T04:49:53;79.10;55.07;88.07;;
57092;Laerm;42968;52.094;4.328;2023-04-24T04:52:19;79.56;52.29;88.96;;
57092;Laerm;42968;52.094;4.328;2023-04-24T04:54:44;77.05;54.17;87.63;;
57092;Laerm;42968;52.094;4.328;2023-04-24T04:57:10;76.45;54.63;84.46;;
57092;Laerm;42968;52.094;4.328;2023-04-24T04:59:35;76.47;57.61;86.95;;
57092;Laerm;42968;52.094;4.328;2023-04-24T05:02:00;76.55;57.40;87.27;;
57092;Laerm;42968;52.094;4.328;2023-04-24T05:04:25;74.56;52.92;83.86;;
57092;Laerm;42968;52.094;4.328;2023-04-24T05:06:51;76.78;62.11;84.53;;
57092;Laerm;42968;52.094;4.328;2023-04-24T05:09:16;78.51;59.21;86.56;;
57092;Laerm;42968;52.094;4.328;2023-04-24T05:11:42;78.15;57.62;87.27;;
57092;Laerm;42968;52.094;4.328;2023-04-24T05:14:07;79.19;62.04;91.75;;
57092;Laerm;42968;52.094;4.328;2023-04-24T05:16:32;78.86;59.25;89.21;;
57092;Laerm;42968;52.094;4.328;2023-04-24T05:18:57;76.19;56.89;86.02;;
57092;Laerm;42968;52.094;4.328;2023-04-24T05:21:23;77.40;53.40;84.92;;
57092;Laerm;42968;52.094;4.328;2023-04-24T05:23:48;77.68;60.47;84.95;;
57092;Laerm;42968;52.094;4.328;2023-04-24T05:26:13;77.52;58.02;87.06;;
57092;Laerm;42968;52.094;4.328;2023-04-24T05:28:39;78.12;59.13;85.90;;
57092;Laerm;42968;52.094;4.328;2023-04-24T05:31:05;75.81;54.64;85.38;;
57092;Laerm;42968;52.094;4.328;2023-04-24T05:33:30;78.07;61.11;85.74;;
57092;Laerm;42968;52.094;4.328;2023-04-24T05:35:55;76.18;59.66;83.57;;
57092;Laerm;42968;52.094;4.328;2023-04-24T05:38:21;77.90;60.36;86.70;;
57092;Laerm;42968;52.094;4.328;2023-04-24T05:40:46;77.89;57.86;87.32;;
57092;Laerm;42968;52.094;4.328;2023-04-24T05:43:12;76.37;56.20;84.56;;
57092;Laerm;42968;52.094;4.328;2023-04-24T05:45:37;78.62;55.83;87.24;;
57092;Laerm;42968;52.094;4.328;2023-04-24T05:48:03;78.08;59.21;88.05;;
57092;Laerm;42968;52.094;4.328;2023-04-24T05:50:28;79.13;57.78;87.34;;
57092;Laerm;42968;52.094;4.328;2023-04-24T05:52:53;78.58;55.17;89.04;;
57092;Laerm;42968;52.094;4.328;2023-04-24T05:55:19;78.08;63.91;86.50;;
57092;Laerm;42968;52.094;4.328;2023-04-24T05:57:44;79.07;60.83;87.82;;
57092;Laerm;42968;52.094;4.328;2023-04-24T06:00:09;77.48;56.44;88.31;;
57092;Laerm;42968;52.094;4.328;2023-04-24T06:02:37;77.20;60.76;85.60;;
57092;Laerm;42968;52.094;4.328;2023-04-24T06:05:02;77.01;66.27;86.59;;
57092;Laerm;42968;52.094;4.328;2023-04-24T06:07:28;77.36;63.43;86.14;;
57092;Laerm;42968;52.094;4.328;2023-04-24T06:09:53;77.77;63.30;88.49;;
57092;Laerm;42968;52.094;4.328;2023-04-24T06:12:18;77.37;60.59;85.19;;
57092;Laerm;42968;52.094;4.328;2023-04-24T06:14:43;76.61;58.47;83.05;;
57092;Laerm;42968;52.094;4.328;2023-04-24T06:17:09;76.40;59.20;83.41;;
57092;Laerm;42968;52.094;4.328;2023-04-24T06:19:34;76.96;57.99;87.33;;
57092;Laerm;42968;52.094;4.328;2023-04-24T06:21:59;77.69;56.43;90.04;;
57092;Laerm;42968;52.094;4.328;2023-04-24T06:24:28;77.02;55.35;83.94;;
57092;Laerm;42968;52.094;4.328;2023-04-24T06:26:53;76.57;55.68;84.55;;
57092;Laerm;42968;52.094;4.328;2023-04-24T06:29:19;78.69;58.93;88.16;;
57092;Laerm;42968;52.094;4.328;2023-04-24T06:31:44;75.56;60.09;83.22;;
57092;Laerm;42968;52.094;4.328;2023-04-24T06:34:09;76.87;59.65;84.10;;
57092;Laerm;42968;52.094;4.328;2023-04-24T06:36:35;75.76;57.49;83.47;;
57092;Laerm;42968;52.094;4.328;2023-04-24T06:39:01;75.61;57.45;84.45;;
57092;Laerm;42968;52.094;4.328;2023-04-24T06:41:26;78.68;62.87;94.27;;
57092;Laerm;42968;52.094;4.328;2023-04-24T06:43:52;77.01;57.81;86.10;;
57092;Laerm;42968;52.094;4.328;2023-04-24T06:46:17;76.74;54.27;84.29;;
57092;Laerm;42968;52.094;4.328;2023-04-24T06:48:43;75.43;62.18;83.50;;
57092;Laerm;42968;52.094;4.328;2023-04-24T06:51:08;77.28;61.42;87.03;;
57092;Laerm;42968;52.094;4.328;2023-04-24T06:53:34;77.17;56.97;88.75;;
57092;Laerm;42968;52.094;4.328;2023-04-24T06:55:59;75.65;64.05;85.93;;
57092;Laerm;42968;52.094;4.328;2023-04-24T06:58:24;74.79;56.01;84.54;;
57092;Laerm;42968;52.094;4.328;2023-04-24T07:00:50;74.36;56.87;83.16;;
57092;Laerm;42968;52.094;4.328;2023-04-24T07:03:15;75.00;59.00;84.85;;
57092;Laerm;42968;52.094;4.328;2023-04-24T07:05:41;74.17;56.41;85.03;;
57092;Laerm;42968;52.094;4.328;2023-04-24T07:08:06;76.27;56.92;88.25;;
57092;Laerm;42968;52.094;4.328;2023-04-24T07:10:32;73.68;59.54;82.51;;
57092;Laerm;42968;52.094;4.328;2023-04-24T07:12:59;75.27;55.09;83.24;;
57092;Laerm;42968;52.094;4.328;2023-04-24T07:15:24;75.05;61.27;82.82;;
57092;Laerm;42968;52.094;4.328;2023-04-24T07:17:49;74.02;53.95;82.46;;
57092;Laerm;42968;52.094;4.328;2023-04-24T07:20:15;73.97;53.95;82.64;;
57092;Laerm;42968;52.094;4.328;2023-04-24T07:22:40;75.41;52.85;84.74;;
57092;Laerm;42968;52.094;4.328;2023-04-24T07:25:06;75.47;49.50;84.38;;
57092;Laerm;42968;52.094;4.328;2023-04-24T07:27:32;73.59;57.79;82.99;;
57092;Laerm;42968;52.094;4.328;2023-04-24T07:29:57;74.88;56.95;87.14;;
57092;Laerm;42968;52.094;4.328;2023-04-24T07:32:22;73.30;57.22;81.45;;
57092;Laerm;42968;52.094;4.328;2023-04-24T07:34:47;73.73;56.38;84.63;;
57092;Laerm;42968;52.094;4.328;2023-04-24T07:37:13;75.31;56.25;85.56;;
57092;Laerm;42968;52.094;4.328;2023-04-24T07:39:38;71.89;54.35;80.31;;
57092;Laerm;42968;52.094;4.328;2023-04-24T07:42:04;72.60;56.46;82.69;;
57092;Laerm;42968;52.094;4.328;2023-04-24T07:44:29;74.45;58.09;82.93;;
57092;Laerm;42968;52.094;4.328;2023-04-24T07:46:54;74.49;60.32;89.62;;
57092;Laerm;42968;52.094;4.328;2023-04-24T07:49:20;74.29;56.78;85.30;;
57092;Laerm;42968;52.094;4.328;2023-04-24T07:51:46;74.38;57.47;82.80;;
57092;Laerm;42968;52.094;4.328;2023-04-24T07:54:11;74.74;58.38;86.43;;
57092;Laerm;42968;52.094;4.328;2023-04-24T07:56:36;75.00;57.68;83.97;;
57092;Laerm;42968;52.094;4.328;2023-04-24T07:59:04;73.28;51.69;82.06;;
57092;Laerm;42968;52.094;4.328;2023-04-24T08:01:29;74.39;52.31;85.15;;
57092;Laerm;42968;52.094;4.328;2023-04-24T08:03:54;72.04;55.10;78.83;;
57092;Laerm;42968;52.094;4.328;2023-04-24T08:06:20;71.99;56.61;82.78;;
57092;Laerm;42968;52.094;4.328;2023-04-24T08:08:45;73.21;60.41;81.03;;
57092;Laerm;42968;52.094;4.328;2023-04-24T08:11:11;73.32;55.30;87.08;;
57092;Laerm;42968;52.094;4.328;2023-04-24T08:13:36;73.90;54.59;80.49;;
57092;Laerm;42968;52.094;4.328;2023-04-24T08:16:01;73.06;57.63;81.80;;
57092;Laerm;42968;52.094;4.328;2023-04-24T08:18:27;74.25;60.84;87.12;;
57092;Laerm;42968;52.094;4.328;2023-04-24T08:20:52;71.99;58.42;80.17;;
57092;Laerm;42968;52.094;4.328;2023-04-24T08:23:17;75.76;58.24;87.29;;
57092;Laerm;42968;52.094;4.328;2023-04-24T08:25:43;71.52;54.68;77.53;;
57092;Laerm;42968;52.094;4.328;2023-04-24T08:28:08;74.26;51.81;83.74;;
57092;Laerm;42968;52.094;4.328;2023-04-24T08:30:34;71.88;54.61;81.48;;
57092;Laerm;42968;52.094;4.328;2023-04-24T08:32:59;73.76;60.28;88.72;;
57092;Laerm;42968;52.094;4.328;2023-04-24T08:35:24;73.12;53.22;83.24;;
57092;Laerm;42968;52.094;4.328;2023-04-24T08:37:50;72.02;53.71;82.19;;
57092;Laerm;42968;52.094;4.328;2023-04-24T08:40:16;73.33;59.70;84.74;;
57092;Laerm;42968;52.094;4.328;2023-04-24T08:42:44;73.55;59.46;83.01;;
57092;Laerm;42968;52.094;4.328;2023-04-24T08:45:10;73.05;54.71;83.71;;
57092;Laerm;42968;52.094;4.328;2023-04-24T08:47:37;73.14;56.74;84.42;;
57092;Laerm;42968;52.094;4.328;2023-04-24T08:50:03;73.34;60.98;80.66;;
57092;Laerm;42968;52.094;4.328;2023-04-24T08:52:28;73.51;59.20;84.68;;
57092;Laerm;42968;52.094;4.328;2023-04-24T08:54:54;72.83;60.22;82.36;;
57092;Laerm;42968;52.094;4.328;2023-04-24T08:57:19;71.71;53.76;83.99;;
57092;Laerm;42968;52.094;4.328;2023-04-24T08:59:45;73.22;57.77;84.84;;
57092;Laerm;42968;52.094;4.328;2023-04-24T09:02:11;73.18;54.13;84.68;;
57092;Laerm;42968;52.094;4.328;2023-04-24T09:04:37;71.54;53.71;78.97;;
57092;Laerm;42968;52.094;4.328;2023-04-24T09:07:02;71.30;51.73;81.32;;
57092;Laerm;42968;52.094;4.328;2023-04-24T09:09:29;72.70;58.65;81.53;;
57092;Laerm;42968;52.094;4.328;2023-04-24T09:11:55;72.53;61.32;80.97;;
57092;Laerm;42968;52.094;4.328;2023-04-24T09:14:22;71.83;54.38;81.82;;
57092;Laerm;42968;52.094;4.328;2023-04-24T09:16:48;72.33;53.43;79.74;;
57092;Laerm;42968;52.094;4.328;2023-04-24T09:19:14;71.83;54.67;87.13;;
57092;Laerm;42968;52.094;4.328;2023-04-24T09:21:39;72.21;57.22;83.21;;
57092;Laerm;42968;52.094;4.328;2023-04-24T09:24:07;72.93;55.20;87.05;;
57092;Laerm;42968;52.094;4.328;2023-04-24T09:26:35;73.32;54.98;85.18;;
57092;Laerm;42968;52.094;4.328;2023-04-24T09:29:00;71.93;52.86;81.88;;
57092;Laerm;42968;52.094;4.328;2023-04-24T09:31:29;71.90;53.90;82.09;;
57092;Laerm;42968;52.094;4.328;2023-04-24T09:33:59;72.61;55.40;85.51;;
57092;Laerm;42968;52.094;4.328;2023-04-24T09:36:34;73.06;53.30;84.98;;
57092;Laerm;42968;52.094;4.328;2023-04-24T09:39:02;72.28;56.48;81.64;;
57092;Laerm;42968;52.094;4.328;2023-04-24T09:41:27;73.57;53.65;81.24;;
57092;Laerm;42968;52.094;4.328;2023-04-24T09:43:54;74.32;54.67;88.38;;
57092;Laerm;42968;52.094;4.328;2023-04-24T09:46:20;72.29;60.12;78.83;;
57092;Laerm;42968;52.094;4.328;2023-04-24T09:48:46;72.54;55.30;86.76;;
57092;Laerm;42968;52.094;4.328;2023-04-24T09:51:12;70.86;53.05;80.15;;
57092;Laerm;42968;52.094;4.328;2023-04-24T09:53:37;70.95;51.90;81.22;;
57092;Laerm;42968;52.094;4.328;2023-04-24T09:56:07;73.58;60.13;81.12;;
57092;Laerm;42968;52.094;4.328;2023-04-24T09:58:34;73.68;57.11;84.85;;
57092;Laerm;42968;52.094;4.328;2023-04-24T10:01:00;70.95;55.63;80.23;;
57092;Laerm;42968;52.094;4.328;2023-04-24T10:03:26;71.95;51.23;83.96;;
57092;Laerm;42968;52.094;4.328;2023-04-24T10:05:52;72.31;57.19;80.58;;
57092;Laerm;42968;52.094;4.328;2023-04-24T10:08:17;72.72;55.25;79.64;;
57092;Laerm;42968;52.094;4.328;2023-04-24T10:10:43;74.28;54.97;85.22;;
57092;Laerm;42968;52.094;4.328;2023-04-24T10:13:09;73.04;54.93;79.64;;
57092;Laerm;42968;52.094;4.328;2023-04-24T10:15:35;72.06;53.28;86.11;;
57092;Laerm;42968;52.094;4.328;2023-04-24T10:18:01;73.87;50.82;87.04;;
57092;Laerm;42968;52.094;4.328;2023-04-24T10:20:27;72.62;55.43;80.47;;
57092;Laerm;42968;52.094;4.328;2023-04-24T10:22:57;73.39;58.28;81.85;;
57092;Laerm;42968;52.094;4.328;2023-04-24T10:25:23;72.94;49.72;82.14;;
57092;Laerm;42968;52.094;4.328;2023-04-24T10:27:49;72.91;56.83;85.71;;
57092;Laerm;42968;52.094;4.328;2023-04-24T10:30:14;72.72;53.39;81.01;;
57092;Laerm;42968;52.094;4.328;2023-04-24T10:32:40;73.91;57.83;88.07;;
57092;Laerm;42968;52.094;4.328;2023-04-24T10:35:06;72.76;56.90;80.92;;
57092;Laerm;42968;52.094;4.328;2023-04-24T10:37:35;70.99;51.75;80.72;;
57092;Laerm;42968;52.094;4.328;2023-04-24T10:40:02;73.18;57.65;83.80;;
57092;Laerm;42968;52.094;4.328;2023-04-24T10:42:27;72.38;53.72;85.08;;
57092;Laerm;42968;52.094;4.328;2023-04-24T10:44:53;73.02;54.61;82.63;;
57092;Laerm;42968;52.094;4.328;2023-04-24T10:47:19;74.37;56.32;84.36;;
57092;Laerm;42968;52.094;4.328;2023-04-24T10:49:44;72.66;53.92;81.31;;
57092;Laerm;42968;52.094;4.328;2023-04-24T10:52:10;73.59;55.50;80.64;;
57092;Laerm;42968;52.094;4.328;2023-04-24T10:59:43;72.49;56.83;83.52;;
57092;Laerm;42968;52.094;4.328;2023-04-24T11:02:08;70.82;51.77;81.53;;
57092;Laerm;42968;52.094;4.328;2023-04-24T11:04:34;73.37;55.71;84.36;;
57092;Laerm;42968;52.094;4.328;2023-04-24T11:07:03;71.89;50.83;84.06;;
57092;Laerm;42968;52.094;4.328;2023-04-24T11:09:30;72.38;58.47;80.02;;
57092;Laerm;42968;52.094;4.328;2023-04-24T11:12:05;73.34;56.53;83.61;;
57092;Laerm;42968;52.094;4.328;2023-04-24T11:17:27;71.26;50.68;83.02;;
57092;Laerm;42968;52.094;4.328;2023-04-24T11:19:52;72.05;60.02;83.89;;
57092;Laerm;42968;52.094;4.328;2023-04-24T11:22:25;71.98;56.37;87.44;;
57092;Laerm;42968;52.094;4.328;2023-04-24T11:24:53;71.90;57.24;83.58;;
57092;Laerm;42968;52.094;4.328;2023-04-24T11:27:19;72.85;54.39;84.04;;
57092;Laerm;42968;52.094;4.328;2023-04-24T11:32:34;71.33;54.48;84.11;;
57092;Laerm;42968;52.094;4.328;2023-04-24T11:34:57;71.18;51.54;80.43;;
57092;Laerm;42968;52.094;4.328;2023-04-24T11:37:24;72.88;57.42;80.03;;
57092;Laerm;42968;52.094;4.328;2023-04-24T11:39:50;71.81;56.15;87.74;;
57092;Laerm;42968;52.094;4.328;2023-04-24T11:42:15;72.58;54.91;81.81;;
57092;Laerm;42968;52.094;4.328;2023-04-24T11:44:41;71.29;53.51;80.17;;
57092;Laerm;42968;52.094;4.328;2023-04-24T11:47:07;70.39;56.21;81.26;;
57092;Laerm;42968;52.094;4.328;2023-04-24T11:49:33;71.38;51.84;79.23;;
57092;Laerm;42968;52.094;4.328;2023-04-24T11:52:01;70.78;55.39;80.54;;
57092;Laerm;42968;52.094;4.328;2023-04-24T11:54:27;72.33;59.06;79.93;;
57092;Laerm;42968;52.094;4.328;2023-04-24T11:56:52;71.87;55.14;87.13;;
57092;Laerm;42968;52.094;4.328;2023-04-24T11:59:17;72.27;50.79;79.37;;
57092;Laerm;42968;52.094;4.328;2023-04-24T12:01:45;72.41;55.44;83.26;;
57092;Laerm;42968;52.094;4.328;2023-04-24T12:04:11;72.21;53.72;84.05;;
57092;Laerm;42968;52.094;4.328;2023-04-24T12:06:37;73.55;54.69;83.48;;
57092;Laerm;42968;52.094;4.328;2023-04-24T12:09:02;73.60;55.34;88.91;;
57092;Laerm;42968;52.094;4.328;2023-04-24T12:11:27;72.68;59.78;86.22;;
57092;Laerm;42968;52.094;4.328;2023-04-24T12:13:53;73.24;57.29;88.07;;
57092;Laerm;42968;52.094;4.328;2023-04-24T12:16:18;70.96;52.67;79.89;;
57092;Laerm;42968;52.094;4.328;2023-04-24T12:18:44;71.82;51.67;88.62;;
57092;Laerm;42968;52.094;4.328;2023-04-24T12:21:17;73.09;52.27;87.14;;
57092;Laerm;42968;52.094;4.328;2023-04-24T12:23:43;73.34;53.92;86.59;;
57092;Laerm;42968;52.094;4.328;2023-04-24T12:26:10;72.19;53.93;85.21;;
57092;Laerm;42968;52.094;4.328;2023-04-24T12:28:35;71.72;52.53;80.58;;
57092;Laerm;42968;52.094;4.328;2023-04-24T12:31:01;72.86;56.57;81.75;;
57092;Laerm;42968;52.094;4.328;2023-04-24T12:33:26;72.78;53.78;88.95;;
57092;Laerm;42968;52.094;4.328;2023-04-24T12:35:52;72.28;52.02;85.70;;
57092;Laerm;42968;52.094;4.328;2023-04-24T12:38:24;72.49;55.23;78.48;;
57092;Laerm;42968;52.094;4.328;2023-04-24T12:41:01;71.23;54.04;82.05;;
57092;Laerm;42968;52.094;4.328;2023-04-24T12:43:27;71.69;54.43;82.09;;
57092;Laerm;42968;52.094;4.328;2023-04-24T12:45:52;74.56;62.64;90.46;;
57092;Laerm;42968;52.094;4.328;2023-04-24T12:48:17;71.98;50.38;83.20;;
57092;Laerm;42968;52.094;4.328;2023-04-24T12:50:43;71.74;49.25;79.38;;
57092;Laerm;42968;52.094;4.328;2023-04-24T12:53:08;72.14;54.14;82.23;;
57092;Laerm;42968;52.094;4.328;2023-04-24T12:55:34;71.08;52.34;79.67;;
57092;Laerm;42968;52.094;4.328;2023-04-24T12:57:59;70.99;54.78;84.55;;
57092;Laerm;42968;52.094;4.328;2023-04-24T13:00:25;70.88;52.71;80.05;;
57092;Laerm;42968;52.094;4.328;2023-04-24T13:02:50;70.46;53.91;79.54;;
57092;Laerm;42968;52.094;4.328;2023-04-24T13:05:16;70.47;52.56;81.50;;
57092;Laerm;42968;52.094;4.328;2023-04-24T13:07:42;72.17;52.61;85.04;;
57092;Laerm;42968;52.094;4.328;2023-04-24T13:10:07;72.88;53.99;80.44;;
57092;Laerm;42968;52.094;4.328;2023-04-24T13:12:33;71.79;55.15;81.47;;
57092;Laerm;42968;52.094;4.328;2023-04-24T13:14:58;71.11;53.14;80.26;;
57092;Laerm;42968;52.094;4.328;2023-04-24T13:17:23;72.63;59.72;81.98;;
57092;Laerm;42968;52.094;4.328;2023-04-24T13:19:49;71.89;53.52;81.31;;
57092;Laerm;42968;52.094;4.328;2023-04-24T13:22:15;71.36;52.59;81.88;;
57092;Laerm;42968;52.094;4.328;2023-04-24T13:24:42;71.25;55.00;78.50;;
57092;Laerm;42968;52.094;4.328;2023-04-24T13:27:07;70.84;52.42;79.07;;
57092;Laerm;42968;52.094;4.328;2023-04-24T13:29:33;70.54;51.55;80.59;;
57092;Laerm;42968;52.094;4.328;2023-04-24T13:31:58;72.49;53.15;80.02;;
57092;Laerm;42968;52.094;4.328;2023-04-24T13:34:25;71.49;53.08;78.87;;
57092;Laerm;42968;52.094;4.328;2023-04-24T13:36:51;70.90;52.22;79.62;;
57092;Laerm;42968;52.094;4.328;2023-04-24T13:39:16;72.64;60.79;83.68;;
57092;Laerm;42968;52.094;4.328;2023-04-24T13:41:42;71.33;57.47;79.25;;
57092;Laerm;42968;52.094;4.328;2023-04-24T13:44:07;71.99;54.24;90.81;;
57092;Laerm;42968;52.094;4.328;2023-04-24T13:46:33;70.82;51.09;86.84;;